createdAt,value
2022-12-22T00:01:22.192Z,38.15
2022-12-22T00:04:08.859Z,32.13
2022-12-22T00:06:55.327Z,35.15
2022-12-22T00:09:41.344Z,41.22
2022-12-22T00:12:30.358Z,32.58
2022-12-22T00:15:17.504Z,28.20
2022-12-22T00:18:03.649Z,27.35
2022-12-22T00:20:49.696Z,31.60
2022-12-22T00:23:35.719Z,31.15
2022-12-22T00:26:21.807Z,28.25
2022-12-22T00:29:08.343Z,33.63
2022-12-22T00:31:54.533Z,37.80
2022-12-22T00:34:41.589Z,45.50
2022-12-22T00:37:31.863Z,33.80
2022-12-22T00:40:20.040Z,37.13
2022-12-22T00:43:06.124Z,35.78
2022-12-22T00:45:52.443Z,35.25
2022-12-22T00:48:44.213Z,31.60
2022-12-22T00:51:31.443Z,33.20
2022-12-22T00:54:17.554Z,35.53
2022-12-22T00:57:03.794Z,37.92
2022-12-22T00:59:50.291Z,37.08
2022-12-22T01:02:36.995Z,31.05
2022-12-22T01:05:23.186Z,35.13
2022-12-22T01:08:09.464Z,44.50
2022-12-22T01:10:55.722Z,46.72
2022-12-22T01:13:42.496Z,36.83
2022-12-22T01:16:35.288Z,41.00
2022-12-22T01:19:22.086Z,38.67
2022-12-22T01:22:08.231Z,40.42
2022-12-22T01:24:54.696Z,39.10
2022-12-22T01:27:40.693Z,44.85
2022-12-22T01:30:28.042Z,40.17
2022-12-22T01:33:14.127Z,53.67
2022-12-22T01:36:00.191Z,37.03
2022-12-22T01:38:46.452Z,39.05
2022-12-22T01:41:36.952Z,52.75
2022-12-22T01:44:34.664Z,41.45
2022-12-22T01:47:48.606Z,25.95
2022-12-22T01:50:42.567Z,36.00
2022-12-22T01:53:34.281Z,34.83
2022-12-22T01:56:21.283Z,39.42
2022-12-22T01:59:12.626Z,35.97
2022-12-22T02:02:00.571Z,38.97
2022-12-22T02:04:58.572Z,29.48
2022-12-22T02:08:06.744Z,33.55
2022-12-22T02:11:41.177Z,28.95
2022-12-22T02:14:39.258Z,35.83
2022-12-22T02:17:40.086Z,24.67
2022-12-22T02:20:54.272Z,31.65
2022-12-22T02:23:46.332Z,30.60
2022-12-22T02:26:55.197Z,29.42
2022-12-22T02:29:47.938Z,35.85
2022-12-22T02:32:34.299Z,28.17
2022-12-22T02:35:20.348Z,36.13
2022-12-22T02:38:19.952Z,35.35
2022-12-22T02:41:24.999Z,28.77
2022-12-22T02:44:35.672Z,25.08
2022-12-22T02:47:30.832Z,31.02
2022-12-22T02:50:22.986Z,36.17
2022-12-22T02:53:10.547Z,30.25
2022-12-22T02:55:56.652Z,28.35
2022-12-22T02:58:44.121Z,34.45
2022-12-22T03:01:30.252Z,35.72
2022-12-22T03:04:16.533Z,39.67
2022-12-22T03:07:02.921Z,34.50
2022-12-22T03:09:49.199Z,35.70
2022-12-22T03:12:35.202Z,36.08
2022-12-22T03:15:21.279Z,43.05
2022-12-22T03:18:07.327Z,41.78
2022-12-22T03:20:53.713Z,42.28
2022-12-22T03:23:40.152Z,41.38
2022-12-22T03:26:07.694Z,45.25
2022-12-22T03:28:35.309Z,45.72
2022-12-22T03:31:06.079Z,41.03
2022-12-22T03:33:34.028Z,36.53
2022-12-22T03:36:02.153Z,35.20
2022-12-22T03:38:29.744Z,40.80
2022-12-22T03:40:57.584Z,41.30
2022-12-22T03:43:43.985Z,38.60
2022-12-22T03:46:32.200Z,43.53
2022-12-22T03:49:10.302Z,36.08
2022-12-22T03:51:49.742Z,38.88
2022-12-22T03:54:20.521Z,38.88
2022-12-22T03:56:48.262Z,32.70
2022-12-22T03:59:16.647Z,38.90
2022-12-22T04:01:46.947Z,31.05
2022-12-22T04:04:16.069Z,29.73
2022-12-22T04:06:43.741Z,28.38
2022-12-22T04:09:11.471Z,27.75
2022-12-22T04:11:57.612Z,32.10
2022-12-22T04:14:31.353Z,33.65
2022-12-22T04:17:01.408Z,36.80
2022-12-22T04:19:29.131Z,31.98
2022-12-22T04:21:56.660Z,35.10
2022-12-22T04:24:24.419Z,37.95
2022-12-22T04:26:52.487Z,37.22
2022-12-22T04:29:20.226Z,37.67
2022-12-22T04:31:48.069Z,37.25
2022-12-22T04:34:15.722Z,38.85
2022-12-22T04:36:43.346Z,30.33
2022-12-22T04:39:10.893Z,32.22
2022-12-22T04:41:38.428Z,33.30
2022-12-22T04:44:06.198Z,29.58
2022-12-22T04:46:33.814Z,33.70
2022-12-22T04:49:01.395Z,31.25
2022-12-22T04:51:29.090Z,40.58
2022-12-22T04:53:56.714Z,30.23
2022-12-22T04:56:24.319Z,28.73
2022-12-22T04:58:51.835Z,30.17
2022-12-22T05:01:19.955Z,32.92
2022-12-22T05:03:48.071Z,32.88
2022-12-22T05:06:15.700Z,39.75
2022-12-22T05:08:43.344Z,29.63
2022-12-22T05:11:11.308Z,32.42
2022-12-22T05:13:38.905Z,24.80
2022-12-22T05:16:12.549Z,27.65
2022-12-22T05:18:41.424Z,21.88
2022-12-22T05:21:13.881Z,34.53
2022-12-22T05:23:42.002Z,28.58
2022-12-22T05:26:13.451Z,31.08
2022-12-22T05:28:42.385Z,38.85
2022-12-22T05:31:21.191Z,33.38
2022-12-22T05:33:49.970Z,36.40
2022-12-22T05:36:17.801Z,31.73
2022-12-22T05:38:45.623Z,41.97
2022-12-22T05:41:13.965Z,36.53
2022-12-22T05:43:41.579Z,31.83
2022-12-22T05:46:11.165Z,44.92
2022-12-22T05:48:39.964Z,54.30
2022-12-22T05:51:09.463Z,52.75
2022-12-22T05:53:37.976Z,43.72
2022-12-22T05:56:06.400Z,45.05
2022-12-22T05:58:35.226Z,39.38
2022-12-22T06:01:02.925Z,47.00
2022-12-22T06:03:31.132Z,46.28
2022-12-22T06:05:59.561Z,50.50
2022-12-22T06:08:27.961Z,38.08
2022-12-22T06:10:59.444Z,42.85
2022-12-22T06:13:27.290Z,31.98
2022-12-22T06:15:54.874Z,32.65
2022-12-22T06:18:22.540Z,41.78
2022-12-22T06:20:53.772Z,59.67
2022-12-22T06:23:22.094Z,69.85
2022-12-22T06:26:01.237Z,40.38
2022-12-22T06:28:29.072Z,39.65
2022-12-22T06:30:56.791Z,40.95
2022-12-22T06:33:24.515Z,38.72
2022-12-22T06:35:58.126Z,41.63
2022-12-22T06:38:28.013Z,42.38
2022-12-22T06:40:55.646Z,36.85
2022-12-22T06:43:23.182Z,42.63
2022-12-22T06:45:50.820Z,38.15
2022-12-22T06:48:18.535Z,51.15
2022-12-22T06:50:47.970Z,42.63
2022-12-22T06:53:15.964Z,44.28
2022-12-22T06:55:43.533Z,46.75
2022-12-22T06:58:11.160Z,69.82
2022-12-22T07:00:38.787Z,49.47
2022-12-22T07:03:06.740Z,57.35
2022-12-22T07:05:34.747Z,58.03
2022-12-22T07:08:08.076Z,41.67
2022-12-22T07:10:55.510Z,48.60
2022-12-22T07:13:24.329Z,32.92
2022-12-22T07:16:00.229Z,38.47
2022-12-22T07:18:31.078Z,45.70
2022-12-22T07:21:01.400Z,38.15
2022-12-22T07:23:29.334Z,32.85
2022-12-22T07:25:57.561Z,26.23
2022-12-22T07:28:25.422Z,37.47
2022-12-22T07:30:54.607Z,46.17
2022-12-22T07:33:23.009Z,50.65
2022-12-22T07:36:20.880Z,49.42
2022-12-22T07:38:50.852Z,33.40
2022-12-22T07:41:38.845Z,42.40
2022-12-22T07:44:08.238Z,44.78
2022-12-22T07:46:38.255Z,44.45
2022-12-22T07:49:25.618Z,48.58
2022-12-22T07:51:55.693Z,42.10
2022-12-22T07:54:23.294Z,41.58
2022-12-22T07:56:50.926Z,60.53
2022-12-22T07:59:18.772Z,73.32
2022-12-22T08:01:47.579Z,77.22
2022-12-22T08:04:15.651Z,72.75
2022-12-22T08:06:43.429Z,60.55
2022-12-22T08:09:15.345Z,54.20
2022-12-22T08:11:43.344Z,51.03
2022-12-22T08:14:10.924Z,46.70
2022-12-22T08:16:38.552Z,33.15
2022-12-22T08:19:06.249Z,36.38
2022-12-22T08:21:33.752Z,42.70
2022-12-22T08:24:01.319Z,48.85
2022-12-22T08:26:36.983Z,39.20
2022-12-22T08:29:16.931Z,29.95
2022-12-22T08:31:44.740Z,30.08
2022-12-22T08:34:15.310Z,33.15
2022-12-22T08:36:50.342Z,30.50
2022-12-22T08:39:20.863Z,38.67
2022-12-22T08:41:51.466Z,28.60
2022-12-22T08:44:22.305Z,32.83
2022-12-22T08:46:51.157Z,25.95
2022-12-22T08:49:19.560Z,30.98
2022-12-22T08:51:48.095Z,36.95
2022-12-22T08:54:16.071Z,29.73
2022-12-22T08:56:44.553Z,29.13
2022-12-22T08:59:12.995Z,36.22
2022-12-22T09:01:44.521Z,36.45
2022-12-22T09:04:14.096Z,39.08
2022-12-22T09:06:41.713Z,36.00
2022-12-22T09:09:12.768Z,31.10
2022-12-22T09:11:41.052Z,30.52
2022-12-22T09:14:10.023Z,31.63
2022-12-22T09:16:38.506Z,65.80
2022-12-22T09:19:06.962Z,82.18
2022-12-22T09:21:35.794Z,34.60
2022-12-22T09:24:04.949Z,26.17
2022-12-22T09:26:32.702Z,28.45
2022-12-22T09:29:00.240Z,25.55
2022-12-22T09:31:29.238Z,40.78
2022-12-22T09:33:57.607Z,69.75
2022-12-22T09:36:29.550Z,47.63
2022-12-22T09:38:57.300Z,45.83
2022-12-22T09:41:32.225Z,37.03
2022-12-22T09:44:14.164Z,84.20
2022-12-22T09:46:42.445Z,44.67
2022-12-22T09:49:15.686Z,36.20
2022-12-22T09:52:39.051Z,40.38
2022-12-22T09:55:16.664Z,31.80
2022-12-22T09:57:45.016Z,33.35
2022-12-22T10:00:15.704Z,34.33
2022-12-22T10:02:55.446Z,27.60
2022-12-22T10:05:31.297Z,33.22
2022-12-22T10:08:09.457Z,39.35
2022-12-22T10:10:37.476Z,38.22
2022-12-22T10:13:06.590Z,41.60
2022-12-22T10:15:39.996Z,30.63
2022-12-22T10:18:16.617Z,32.38
2022-12-22T10:21:13.957Z,29.92
2022-12-22T10:23:45.801Z,34.20
2022-12-22T10:26:27.857Z,30.60
2022-12-22T10:29:00.579Z,31.45
2022-12-22T10:31:32.562Z,26.83
2022-12-22T10:34:17.568Z,30.05
2022-12-22T10:36:49.901Z,25.65
2022-12-22T10:39:23.604Z,29.55
2022-12-22T10:41:55.283Z,32.17
2022-12-22T10:44:27.256Z,28.27
2022-12-22T10:46:57.879Z,31.70
2022-12-22T10:49:28.166Z,33.80
2022-12-22T10:52:15.322Z,27.95
2022-12-22T10:54:45.053Z,30.85
2022-12-22T10:57:15.535Z,33.45
2022-12-22T10:59:55.051Z,35.25
2022-12-22T11:02:23.019Z,39.13
2022-12-22T11:04:52.208Z,43.38
2022-12-22T11:07:20.738Z,36.00
2022-12-22T11:09:48.758Z,35.28
2022-12-22T11:12:38.165Z,37.58
2022-12-22T11:15:37.255Z,39.55
2022-12-22T11:18:20.772Z,32.92
2022-12-22T11:21:01.432Z,30.70
2022-12-22T11:23:33.790Z,46.13
2022-12-22T11:26:11.660Z,39.88
2022-12-22T11:28:42.977Z,55.50
2022-12-22T11:31:22.841Z,39.00
2022-12-22T11:34:02.137Z,35.53
2022-12-22T11:36:57.921Z,35.38
2022-12-22T11:39:57.520Z,39.60
2022-12-22T11:43:11.107Z,32.17
2022-12-22T11:45:55.507Z,45.08
2022-12-22T11:48:29.222Z,38.45
2022-12-22T11:51:09.708Z,31.65
2022-12-22T11:54:12.432Z,36.60
2022-12-22T11:56:47.049Z,36.65
2022-12-22T11:59:42.207Z,34.75
2022-12-22T12:02:48.092Z,34.10
2022-12-22T12:05:44.057Z,37.70
2022-12-22T12:08:23.110Z,38.22
2022-12-22T12:11:11.501Z,43.63
2022-12-22T12:13:54.263Z,51.03
2022-12-22T12:16:34.060Z,44.63
2022-12-22T12:19:40.708Z,40.58
2022-12-22T12:22:39.346Z,40.35
2022-12-22T12:25:30.339Z,38.63
2022-12-22T12:28:21.405Z,33.70
2022-12-22T12:31:01.682Z,38.55
2022-12-22T12:33:54.577Z,37.92
2022-12-22T12:36:31.366Z,42.38
2022-12-22T12:39:19.013Z,41.08
2022-12-22T12:42:17.022Z,54.65
2022-12-22T12:44:46.041Z,48.30
2022-12-22T12:47:26.650Z,50.78
2022-12-22T12:49:59.868Z,49.53
2022-12-22T12:52:48.867Z,55.67
2022-12-22T12:55:33.608Z,66.85
2022-12-22T12:58:04.314Z,46.55
2022-12-22T13:00:34.932Z,96.05
2022-12-22T13:03:04.571Z,66.90
2022-12-22T13:05:51.774Z,50.67
2022-12-22T13:08:20.787Z,53.33
2022-12-22T13:11:08.628Z,53.65
2022-12-22T13:13:36.215Z,48.25
2022-12-22T13:16:04.342Z,53.40
2022-12-22T13:18:34.760Z,51.20
2022-12-22T13:21:50.997Z,43.97
2022-12-22T13:24:23.708Z,42.50
2022-12-22T13:26:45.584Z,45.53
2022-12-22T13:29:22.140Z,78.90
2022-12-22T13:32:14.413Z,50.17
2022-12-22T13:37:59.716Z,44.72
2022-12-22T13:40:44.212Z,52.03
2022-12-22T13:43:19.599Z,49.28
2022-12-22T13:45:50.762Z,48.20
2022-12-22T13:48:21.967Z,47.63
2022-12-22T13:51:21.402Z,52.72
2022-12-22T13:54:12.932Z,58.85
2022-12-22T13:56:52.222Z,51.63
2022-12-22T13:59:35.403Z,58.78
2022-12-22T14:02:09.218Z,54.00
2022-12-22T14:04:38.801Z,58.25
2022-12-22T14:07:20.447Z,57.53
2022-12-22T14:09:50.883Z,58.20
2022-12-22T14:12:20.561Z,57.70
2022-12-22T14:14:50.710Z,54.13
2022-12-22T14:17:30.957Z,54.58
2022-12-22T14:20:36.466Z,61.92
2022-12-22T14:23:24.745Z,63.67
2022-12-22T14:25:55.345Z,57.38
2022-12-22T14:28:24.360Z,55.85
2022-12-22T14:30:56.069Z,63.95
2022-12-22T14:33:31.985Z,59.67
2022-12-22T14:36:23.942Z,63.17
2022-12-22T14:38:55.557Z,67.22
2022-12-22T14:41:41.522Z,79.10
2022-12-22T14:44:16.573Z,72.65
2022-12-22T14:46:45.420Z,55.42
2022-12-22T14:49:19.354Z,56.35
2022-12-22T14:52:01.044Z,54.63
2022-12-22T14:54:29.404Z,55.80
2022-12-22T14:57:07.288Z,56.35
2022-12-22T14:59:39.145Z,52.22
2022-12-22T15:02:23.787Z,57.17
2022-12-22T15:05:09.326Z,52.72
2022-12-22T15:08:08.525Z,56.40
2022-12-22T15:10:44.417Z,51.83
2022-12-22T15:13:23.848Z,50.03
2022-12-22T15:15:52.657Z,45.92
2022-12-22T15:18:26.061Z,59.75
2022-12-22T15:20:55.883Z,55.20
2022-12-22T15:23:23.701Z,60.83
2022-12-22T15:25:51.358Z,48.70
2022-12-22T15:28:18.872Z,48.90
2022-12-22T15:30:46.625Z,56.72
2022-12-22T15:33:18.539Z,53.80
2022-12-22T15:35:46.791Z,54.13
2022-12-22T15:38:17.378Z,56.55
2022-12-22T15:40:45.308Z,62.25
2022-12-22T15:43:53.940Z,54.58
2022-12-22T15:46:04.291Z,58.00
2022-12-22T15:48:35.454Z,65.75
2022-12-22T15:51:04.319Z,59.92
2022-12-22T15:53:33.635Z,58.95
2022-12-22T15:56:01.737Z,51.38
2022-12-22T15:58:35.404Z,57.25
2022-12-22T16:01:03.184Z,54.47
2022-12-22T16:03:30.869Z,56.30
2022-12-22T16:05:58.816Z,55.10
2022-12-22T16:08:30.206Z,60.30
2022-12-22T16:10:58.444Z,55.55
2022-12-22T16:13:27.343Z,57.00
2022-12-22T16:15:57.892Z,75.00
2022-12-22T16:18:25.896Z,69.97
2022-12-22T16:20:55.430Z,76.78
2022-12-22T16:23:25.930Z,77.55
2022-12-22T16:26:01.306Z,71.65
2022-12-22T16:28:30.229Z,79.35
2022-12-22T16:30:58.651Z,76.57
2022-12-22T16:33:26.495Z,72.25
2022-12-22T16:35:54.204Z,70.35
2022-12-22T16:38:21.885Z,80.25
2022-12-22T16:40:51.975Z,76.80
2022-12-22T16:46:16.431Z,66.03
2022-12-22T16:48:59.533Z,64.82
2022-12-22T16:54:02.463Z,71.78
2022-12-22T16:56:31.551Z,69.55
2022-12-22T16:59:00.996Z,79.35
2022-12-22T17:01:29.555Z,78.03
2022-12-22T17:04:00.934Z,77.07
2022-12-22T17:06:28.593Z,79.82
2022-12-22T17:08:56.457Z,75.53
2022-12-22T17:11:27.524Z,71.18
2022-12-22T17:14:15.056Z,60.15
2022-12-22T17:16:42.816Z,69.32
2022-12-22T17:19:11.754Z,57.08
2022-12-22T17:21:39.368Z,60.50
2022-12-22T17:24:07.307Z,59.33
2022-12-22T17:26:36.756Z,54.08
2022-12-22T17:29:04.819Z,66.90
2022-12-22T17:31:32.560Z,59.42
2022-12-22T17:34:00.227Z,74.72
2022-12-22T17:36:37.256Z,78.57
2022-12-22T17:39:05.324Z,84.68
2022-12-22T17:41:33.248Z,99.75
2022-12-22T17:44:00.936Z,91.88
2022-12-22T17:46:29.225Z,76.93
2022-12-22T17:48:56.996Z,73.25
2022-12-22T17:51:29.685Z,65.25
2022-12-22T17:53:58.909Z,77.80
2022-12-22T17:56:27.806Z,71.25
2022-12-22T17:58:55.543Z,62.97
2022-12-22T18:01:37.155Z,61.45
2022-12-22T18:04:05.207Z,63.42
2022-12-22T18:06:35.495Z,65.70
2022-12-22T18:09:07.502Z,59.30
2022-12-22T18:11:39.116Z,71.35
2022-12-22T18:14:13.089Z,58.47
2022-12-22T18:16:40.807Z,58.33
2022-12-22T18:19:08.527Z,65.15
2022-12-22T18:21:36.566Z,70.25
2022-12-22T18:24:04.860Z,58.72
2022-12-22T18:26:32.948Z,64.93
2022-12-22T18:29:01.916Z,64.65
2022-12-22T18:31:29.879Z,69.63
2022-12-22T18:33:58.196Z,76.45
2022-12-22T18:36:32.907Z,57.47
2022-12-22T18:39:02.410Z,65.13
2022-12-22T18:41:35.401Z,70.22
2022-12-22T18:44:03.139Z,82.05
2022-12-22T18:46:30.851Z,87.22
2022-12-22T18:49:03.647Z,83.85
2022-12-22T18:51:33.315Z,86.80
2022-12-22T18:54:01.054Z,107.57
2022-12-22T18:56:28.948Z,105.60
2022-12-22T18:58:56.634Z,117.70
2022-12-22T19:01:26.820Z,103.95
2022-12-22T19:03:57.394Z,99.97
2022-12-22T19:06:25.617Z,95.75
2022-12-22T19:08:53.293Z,86.55
2022-12-22T19:11:25.535Z,83.90
2022-12-22T19:13:55.482Z,78.68
2022-12-22T19:16:27.166Z,66.60
2022-12-22T19:18:57.204Z,62.63
2022-12-22T19:21:25.029Z,97.75
2022-12-22T19:23:52.870Z,77.65
2022-12-22T19:26:24.344Z,68.45
2022-12-22T19:28:56.806Z,60.35
2022-12-22T19:31:31.060Z,56.35
2022-12-22T19:34:03.026Z,57.70
2022-12-22T19:36:32.077Z,61.53
2022-12-22T19:39:04.693Z,51.13
2022-12-22T19:41:44.787Z,66.97
2022-12-22T19:44:23.438Z,71.07
2022-12-22T19:46:53.248Z,64.65
2022-12-22T19:49:24.825Z,95.38
2022-12-22T19:51:52.483Z,84.68
2022-12-22T19:54:20.596Z,71.00
2022-12-22T19:56:52.648Z,75.13
2022-12-22T19:59:40.112Z,77.03
2022-12-22T20:02:30.323Z,80.68
2022-12-22T20:05:00.145Z,66.15
2022-12-22T20:07:30.081Z,73.97
2022-12-22T20:09:58.042Z,84.20
2022-12-22T20:12:29.287Z,80.55
2022-12-22T20:14:58.273Z,77.43
2022-12-22T20:17:27.129Z,80.03
2022-12-22T20:19:54.928Z,84.88
2022-12-22T20:22:23.578Z,69.80
2022-12-22T20:24:51.903Z,69.80
2022-12-22T20:27:29.827Z,74.93
2022-12-22T20:29:58.190Z,75.40
2022-12-22T20:32:28.299Z,86.25
2022-12-22T20:34:56.703Z,69.07
2022-12-22T20:37:25.768Z,75.13
2022-12-22T20:39:53.794Z,66.55
2022-12-22T20:42:25.122Z,68.28
2022-12-22T20:45:03.967Z,83.25
2022-12-22T20:47:36.465Z,81.97
2022-12-22T20:50:28.568Z,70.17
2022-12-22T20:52:57.444Z,69.50
2022-12-22T20:55:28.027Z,78.93
2022-12-22T20:57:56.416Z,59.55
2022-12-22T21:00:26.998Z,68.80
2022-12-22T21:02:55.264Z,79.63
2022-12-22T21:05:23.206Z,64.72
2022-12-22T21:07:50.987Z,62.25
2022-12-22T21:10:22.194Z,62.08
2022-12-22T21:12:50.406Z,60.65
2022-12-22T21:15:20.568Z,54.60
2022-12-22T21:17:55.974Z,67.50
2022-12-22T21:20:29.136Z,64.93
2022-12-22T21:22:56.766Z,81.00
2022-12-22T21:25:24.869Z,68.97
2022-12-22T21:27:52.748Z,85.28
2022-12-22T21:30:26.465Z,90.63
2022-12-22T21:32:54.875Z,78.60
2022-12-22T21:35:26.340Z,79.70
2022-12-22T21:37:55.142Z,85.40
2022-12-22T21:40:28.286Z,85.03
2022-12-22T21:42:56.814Z,77.32
2022-12-22T21:45:31.871Z,73.30
2022-12-22T21:48:01.087Z,71.70
2022-12-22T21:50:31.437Z,87.07
2022-12-22T21:52:59.368Z,81.15
2022-12-22T21:55:30.651Z,84.10
2022-12-22T21:57:58.779Z,94.03
2022-12-22T22:00:28.562Z,72.35
2022-12-22T22:02:56.911Z,81.03
2022-12-22T22:05:45.307Z,90.30
2022-12-22T22:08:12.978Z,86.40
2022-12-22T22:10:43.253Z,85.43
2022-12-22T22:13:15.578Z,90.20
2022-12-22T22:15:44.072Z,80.35
2022-12-22T22:18:16.617Z,65.75
2022-12-22T22:20:44.485Z,59.70
2022-12-22T22:23:14.363Z,67.15
2022-12-22T22:25:42.113Z,70.55
2022-12-22T22:28:11.585Z,78.55
2022-12-22T22:30:41.601Z,64.65
2022-12-22T22:33:10.620Z,68.65
2022-12-22T22:35:39.938Z,63.05
2022-12-22T22:38:11.811Z,65.88
2022-12-22T22:40:42.189Z,65.73
2022-12-22T22:43:10.046Z,59.50
2022-12-22T22:45:38.818Z,71.32
2022-12-22T22:48:10.816Z,61.40
2022-12-22T22:50:41.052Z,68.70
2022-12-22T22:53:08.732Z,64.97
2022-12-22T22:55:36.246Z,62.53
2022-12-22T22:58:04.013Z,69.43
2022-12-22T23:00:31.870Z,88.95
2022-12-22T23:03:00.460Z,70.75
2022-12-22T23:05:28.402Z,81.25
2022-12-22T23:07:56.014Z,69.90
2022-12-22T23:10:23.644Z,73.20
2022-12-22T23:12:51.167Z,73.07
2022-12-22T23:15:19.019Z,62.20
2022-12-22T23:17:46.697Z,70.25
2022-12-22T23:20:14.373Z,71.38
2022-12-22T23:22:42.006Z,80.72
2022-12-22T23:25:09.719Z,65.35
2022-12-22T23:27:37.229Z,66.93
2022-12-22T23:30:05.221Z,58.28
2022-12-22T23:32:32.755Z,80.28
2022-12-22T23:35:00.429Z,56.58
2022-12-22T23:37:27.969Z,86.95
2022-12-22T23:39:56.165Z,73.20
2022-12-22T23:42:29.459Z,54.55
2022-12-22T23:44:57.056Z,60.72
2022-12-22T23:47:24.609Z,47.97
2022-12-22T23:49:52.190Z,67.93
2022-12-22T23:52:19.905Z,61.42
2022-12-22T23:54:47.405Z,52.80
2022-12-22T23:57:15.090Z,62.78
2022-12-22T23:59:42.685Z,64.40
